sensor_id;sensor_type;location;lat;lon;timestamp;pressure;altitude;pressure_sealevel;temperature;humidity
4199;BME280;2113;50.946;14.610;2023-02-18T17:37:54;96692.88;;;11.19;62.09
4199;BME280;2113;50.946;14.610;2023-02-18T17:40:25;96698.38;;;11.32;61.96
4199;BME280;2113;50.946;14.610;2023-02-18T17:42:55;96706.53;;;11.05;62.07
4199;BME280;2113;50.946;14.610;2023-02-18T17:45:27;96692.19;;;11.53;61.04
4199;BME280;2113;50.946;14.610;2023-02-18T17:47:59;96701.63;;;11.18;61.51
4199;BME280;2113;50.946;14.610;2023-02-18T17:50:29;96700.16;;;11.31;61.04
4199;BME280;2113;50.946;14.610;2023-02-18T17:52:59;96717.97;;;11.01;61.94
4199;BME280;2113;50.946;14.610;2023-02-18T17:55:31;96716.38;;;11.36;61.73
4199;BME280;2113;50.946;14.610;2023-02-18T17:58:00;96718.09;;;10.98;63.70
4199;BME280;2113;50.946;14.610;2023-02-18T18:00:30;96714.28;;;11.26;63.59
4199;BME280;2113;50.946;14.610;2023-02-18T18:02:59;96722.09;;;11.26;63.02
4199;BME280;2113;50.946;14.610;2023-02-18T18:05:30;96719.63;;;11.23;63.33
4199;BME280;2113;50.946;14.610;2023-02-18T18:08:02;96725.78;;;11.01;63.89
4199;BME280;2113;50.946;14.610;2023-02-18T18:10:33;96738.25;;;11.32;63.05
4199;BME280;2113;50.946;14.610;2023-02-18T18:13:07;96724.66;;;11.07;63.37
4199;BME280;2113;50.946;14.610;2023-02-18T18:15:39;96728.44;;;11.39;62.58
4199;BME280;2113;50.946;14.610;2023-02-18T18:18:09;96742.91;;;11.26;62.36
4199;BME280;2113;50.946;14.610;2023-02-18T18:20:38;96739.72;;;11.19;62.55
4199;BME280;2113;50.946;14.610;2023-02-18T18:23:11;96748.75;;;11.31;62.33
4199;BME280;2113;50.946;14.610;2023-02-18T18:25:41;96756.16;;;11.01;62.59
4199;BME280;2113;50.946;14.610;2023-02-18T18:28:10;96740.56;;;11.20;62.18
4199;BME280;2113;50.946;14.610;2023-02-18T18:30:41;96752.41;;;11.46;61.80
4199;BME280;2113;50.946;14.610;2023-02-18T18:33:14;96756.19;;;11.20;61.64
4199;BME280;2113;50.946;14.610;2023-02-18T18:35:43;96759.53;;;11.42;61.93
4199;BME280;2113;50.946;14.610;2023-02-18T18:38:14;96771.53;;;11.26;62.19
4199;BME280;2113;50.946;14.610;2023-02-18T18:40:44;96767.16;;;11.66;61.63
4199;BME280;2113;50.946;14.610;2023-02-18T18:43:16;96785.00;;;11.54;61.86
4199;BME280;2113;50.946;14.610;2023-02-18T18:45:46;96808.63;;;11.10;62.79
4199;BME280;2113;50.946;14.610;2023-02-18T18:48:15;96791.47;;;11.46;62.75
4199;BME280;2113;50.946;14.610;2023-02-18T18:50:43;96787.63;;;11.54;62.37
4199;BME280;2113;50.946;14.610;2023-02-18T18:57:16;96824.72;;;10.77;64.26
4199;BME280;2113;50.946;14.610;2023-02-18T19:02:44;96821.88;;;11.04;63.33
4199;BME280;2113;50.946;14.610;2023-02-18T19:05:18;96816.84;;;11.22;63.18
4199;BME280;2113;50.946;14.610;2023-02-18T19:07:46;96820.41;;;11.59;62.05
4199;BME280;2113;50.946;14.610;2023-02-18T19:10:15;96812.63;;;11.38;62.49
4199;BME280;2113;50.946;14.610;2023-02-18T19:12:47;96805.75;;;11.37;62.40
4199;BME280;2113;50.946;14.610;2023-02-18T19:15:19;96812.19;;;11.08;62.56
4199;BME280;2113;50.946;14.610;2023-02-18T19:17:50;96824.91;;;10.95;62.96
4199;BME280;2113;50.946;14.610;2023-02-18T19:20:22;96830.13;;;10.73;63.12
4199;BME280;2113;50.946;14.610;2023-02-18T19:22:51;96830.84;;;11.17;62.05
4199;BME280;2113;50.946;14.610;2023-02-18T19:25:20;96837.44;;;11.47;61.22
4199;BME280;2113;50.946;14.610;2023-02-18T19:27:50;96837.38;;;11.48;60.83
4199;BME280;2113;50.946;14.610;2023-02-18T19:30:21;96843.50;;;11.06;61.43
4199;BME280;2113;50.946;14.610;2023-02-18T19:32:51;96838.34;;;11.65;60.16
4199;BME280;2113;50.946;14.610;2023-02-18T19:35:22;96844.56;;;11.62;60.46
4199;BME280;2113;50.946;14.610;2023-02-18T19:37:50;96861.53;;;11.31;60.79
4199;BME280;2113;50.946;14.610;2023-02-18T19:40:20;96866.19;;;11.23;61.51
4199;BME280;2113;50.946;14.610;2023-02-18T19:42:50;96869.03;;;11.98;59.79
4199;BME280;2113;50.946;14.610;2023-02-18T19:45:20;96867.56;;;11.32;61.52
4199;BME280;2113;50.946;14.610;2023-02-18T19:47:52;96862.34;;;11.32;61.13
4199;BME280;2113;50.946;14.610;2023-02-18T19:50:21;96870.94;;;11.34;61.46
4199;BME280;2113;50.946;14.610;2023-02-18T19:52:51;96862.09;;;11.38;61.09
4199;BME280;2113;50.946;14.610;2023-02-18T19:55:20;96866.00;;;11.07;61.82
4199;BME280;2113;50.946;14.610;2023-02-18T19:57:50;96871.66;;;11.58;60.97
4199;BME280;2113;50.946;14.610;2023-02-18T20:00:20;96886.28;;;11.61;61.33
4199;BME280;2113;50.946;14.610;2023-02-18T20:02:49;96886.94;;;11.45;61.59
4199;BME280;2113;50.946;14.610;2023-02-18T20:05:17;96884.34;;;11.25;62.27
4199;BME280;2113;50.946;14.610;2023-02-18T20:07:46;96880.81;;;11.67;60.94
4199;BME280;2113;50.946;14.610;2023-02-18T20:10:16;96880.00;;;11.05;62.79
4199;BME280;2113;50.946;14.610;2023-02-18T20:12:51;96871.13;;;10.88;62.60
4199;BME280;2113;50.946;14.610;2023-02-18T20:15:20;96864.88;;;10.92;62.09
4199;BME280;2113;50.946;14.610;2023-02-18T20:17:48;96884.41;;;11.23;61.80
4199;BME280;2113;50.946;14.610;2023-02-18T20:20:18;96872.97;;;11.27;61.20
4199;BME280;2113;50.946;14.610;2023-02-18T20:22:47;96869.09;;;11.56;61.10
4199;BME280;2113;50.946;14.610;2023-02-18T20:25:15;96867.50;;;11.93;60.04
4199;BME280;2113;50.946;14.610;2023-02-18T20:27:44;96867.56;;;11.52;61.03
4199;BME280;2113;50.946;14.610;2023-02-18T20:30:28;96881.50;;;11.10;61.85
4199;BME280;2113;50.946;14.610;2023-02-18T20:32:57;96875.09;;;11.17;61.57
4199;BME280;2113;50.946;14.610;2023-02-18T20:35:25;96884.53;;;11.41;61.12
4199;BME280;2113;50.946;14.610;2023-02-18T20:37:54;96867.03;;;11.44;61.07
4199;BME280;2113;50.946;14.610;2023-02-18T20:40:22;96887.41;;;11.34;61.26
4199;BME280;2113;50.946;14.610;2023-02-18T20:42:50;96896.13;;;11.13;61.83
4199;BME280;2113;50.946;14.610;2023-02-18T20:45:18;96881.69;;;11.26;61.26
4199;BME280;2113;50.946;14.610;2023-02-18T20:47:48;96881.09;;;10.99;61.31
4199;BME280;2113;50.946;14.610;2023-02-18T20:50:16;96895.16;;;11.36;61.39
4199;BME280;2113;50.946;14.610;2023-02-18T20:52:44;96900.16;;;11.20;61.22
4199;BME280;2113;50.946;14.610;2023-02-18T20:55:13;96892.47;;;11.17;61.36
4199;BME280;2113;50.946;14.610;2023-02-18T20:57:41;96898.41;;;11.21;60.94
4199;BME280;2113;50.946;14.610;2023-02-18T21:00:10;96894.88;;;11.42;60.51
4199;BME280;2113;50.946;14.610;2023-02-18T21:02:39;96907.50;;;11.10;61.30
4199;BME280;2113;50.946;14.610;2023-02-18T21:05:09;96913.25;;;11.39;60.82
4199;BME280;2113;50.946;14.610;2023-02-18T21:07:37;96903.28;;;11.49;60.68
4199;BME280;2113;50.946;14.610;2023-02-18T21:10:06;96909.69;;;11.20;61.98
4199;BME280;2113;50.946;14.610;2023-02-18T21:12:34;96909.78;;;11.59;60.90
4199;BME280;2113;50.946;14.610;2023-02-18T21:15:03;96910.09;;;11.51;60.20
4199;BME280;2113;50.946;14.610;2023-02-18T21:17:32;96906.00;;;11.25;60.93
4199;BME280;2113;50.946;14.610;2023-02-18T21:20:00;96894.94;;;11.41;61.09
4199;BME280;2113;50.946;14.610;2023-02-18T21:22:30;96904.66;;;11.16;61.41
4199;BME280;2113;50.946;14.610;2023-02-18T21:24:58;96910.56;;;11.41;62.14
4199;BME280;2113;50.946;14.610;2023-02-18T21:27:26;96907.09;;;11.20;62.10
4199;BME280;2113;50.946;14.610;2023-02-18T21:29:57;96907.00;;;11.23;62.54
4199;BME280;2113;50.946;14.610;2023-02-18T21:32:25;96928.66;;;11.44;61.70
4199;BME280;2113;50.946;14.610;2023-02-18T21:34:54;96920.59;;;10.87;62.34
4199;BME280;2113;50.946;14.610;2023-02-18T21:37:23;96911.53;;;11.17;61.15
4199;BME280;2113;50.946;14.610;2023-02-18T21:39:53;96916.81;;;11.16;62.09
4199;BME280;2113;50.946;14.610;2023-02-18T21:42:21;96906.13;;;11.63;60.97
4199;BME280;2113;50.946;14.610;2023-02-18T21:44:49;96908.69;;;11.24;61.39
4199;BME280;2113;50.946;14.610;2023-02-18T21:47:19;96919.47;;;11.14;61.64
4199;BME280;2113;50.946;14.610;2023-02-18T21:49:46;96905.13;;;11.04;62.21
4199;BME280;2113;50.946;14.610;2023-02-18T21:52:15;96903.72;;;11.17;61.51
4199;BME280;2113;50.946;14.610;2023-02-18T21:54:43;96907.56;;;11.09;62.04
4199;BME280;2113;50.946;14.610;2023-02-18T21:57:14;96905.38;;;11.20;61.15
4199;BME280;2113;50.946;14.610;2023-02-18T21:59:43;96912.88;;;11.48;60.93
4199;BME280;2113;50.946;14.610;2023-02-18T22:02:15;96905.44;;;11.19;61.13
4199;BME280;2113;50.946;14.610;2023-02-18T22:04:45;96900.78;;;11.25;60.67
4199;BME280;2113;50.946;14.610;2023-02-18T22:07:14;96903.88;;;11.14;61.05
4199;BME280;2113;50.946;14.610;2023-02-18T22:09:43;96914.69;;;11.26;60.35
4199;BME280;2113;50.946;14.610;2023-02-18T22:12:16;96919.34;;;11.38;60.02
4199;BME280;2113;50.946;14.610;2023-02-18T22:14:45;96908.69;;;11.44;59.89
4199;BME280;2113;50.946;14.610;2023-02-18T22:17:14;96917.59;;;11.18;60.42
4199;BME280;2113;50.946;14.610;2023-02-18T22:19:43;96916.34;;;11.06;60.50
4199;BME280;2113;50.946;14.610;2023-02-18T22:22:12;96920.31;;;11.15;60.77
4199;BME280;2113;50.946;14.610;2023-02-18T22:24:40;96909.16;;;11.33;60.53
4199;BME280;2113;50.946;14.610;2023-02-18T22:27:08;96917.28;;;11.26;60.67
4199;BME280;2113;50.946;14.610;2023-02-18T22:29:39;96919.78;;;11.07;61.15
4199;BME280;2113;50.946;14.610;2023-02-18T22:32:06;96926.25;;;11.19;61.13
4199;BME280;2113;50.946;14.610;2023-02-18T22:34:34;96922.03;;;10.94;61.64
4199;BME280;2113;50.946;14.610;2023-02-18T22:37:03;96921.78;;;11.00;61.05
4199;BME280;2113;50.946;14.610;2023-02-18T22:39:31;96920.41;;;11.34;60.70
4199;BME280;2113;50.946;14.610;2023-02-18T22:41:59;96925.34;;;11.40;60.33
4199;BME280;2113;50.946;14.610;2023-02-18T22:44:28;96909.59;;;11.43;60.46
4199;BME280;2113;50.946;14.610;2023-02-18T22:46:57;96903.22;;;11.50;60.05
4199;BME280;2113;50.946;14.610;2023-02-18T22:49:26;96904.56;;;11.80;59.03
4199;BME280;2113;50.946;14.610;2023-02-18T22:51:54;96905.88;;;11.28;60.24
4199;BME280;2113;50.946;14.610;2023-02-18T22:54:22;96905.28;;;11.42;59.82
4199;BME280;2113;50.946;14.610;2023-02-18T22:56:51;96901.78;;;11.64;59.21
4199;BME280;2113;50.946;14.610;2023-02-18T22:59:20;96902.19;;;11.54;59.47
4199;BME280;2113;50.946;14.610;2023-02-18T23:01:48;96895.72;;;11.63;59.29
4199;BME280;2113;50.946;14.610;2023-02-18T23:04:20;96898.84;;;11.71;59.70
4199;BME280;2113;50.946;14.610;2023-02-18T23:06:49;96904.78;;;11.34;60.78
4199;BME280;2113;50.946;14.610;2023-02-18T23:09:19;96902.53;;;11.04;61.38
4199;BME280;2113;50.946;14.610;2023-02-18T23:11:49;96908.44;;;11.30;61.37
4199;BME280;2113;50.946;14.610;2023-02-18T23:14:18;96911.28;;;11.24;61.64
4199;BME280;2113;50.946;14.610;2023-02-18T23:16:49;96917.38;;;11.02;61.87
4199;BME280;2113;50.946;14.610;2023-02-18T23:19:38;96910.94;;;11.11;62.06
4199;BME280;2113;50.946;14.610;2023-02-18T23:22:08;96911.88;;;11.30;61.44
4199;BME280;2113;50.946;14.610;2023-02-18T23:24:39;96911.16;;;11.06;62.06
4199;BME280;2113;50.946;14.610;2023-02-18T23:27:10;96912.00;;;11.07;61.95
4199;BME280;2113;50.946;14.610;2023-02-18T23:29:40;96916.09;;;11.33;60.85
4199;BME280;2113;50.946;14.610;2023-02-18T23:32:08;96901.69;;;11.04;61.56
4199;BME280;2113;50.946;14.610;2023-02-18T23:34:38;96907.44;;;11.32;60.91
4199;BME280;2113;50.946;14.610;2023-02-18T23:37:06;96899.84;;;10.85;61.64
4199;BME280;2113;50.946;14.610;2023-02-18T23:39:35;96897.88;;;11.12;61.34
4199;BME280;2113;50.946;14.610;2023-02-18T23:42:03;96899.00;;;11.27;60.40
4199;BME280;2113;50.946;14.610;2023-02-18T23:44:31;96910.44;;;11.44;60.04
4199;BME280;2113;50.946;14.610;2023-02-18T23:47:00;96905.56;;;11.36;60.01
4199;BME280;2113;50.946;14.610;2023-02-18T23:49:28;96911.53;;;11.38;59.67
4199;BME280;2113;50.946;14.610;2023-02-18T23:51:58;96911.53;;;11.59;59.26
4199;BME280;2113;50.946;14.610;2023-02-18T23:54:26;96903.22;;;11.30;60.22
4199;BME280;2113;50.946;14.610;2023-02-18T23:56:54;96909.16;;;11.73;58.82
4199;BME280;2113;50.946;14.610;2023-02-18T23:59:22;96903.06;;;11.33;59.48
